createdAt,value
2022-08-17T00:00:53.959Z,61
2022-08-17T00:03:32.772Z,61
2022-08-17T00:06:04.022Z,60
2022-08-17T00:08:37.378Z,61
2022-08-17T00:11:09.871Z,61
2022-08-17T00:13:42.506Z,61
2022-08-17T00:16:15.170Z,61
2022-08-17T00:19:09.431Z,61
2022-08-17T00:22:38.006Z,61
2022-08-17T00:25:08.506Z,62
2022-08-17T00:27:41.503Z,62
2022-08-17T00:30:14.014Z,62
2022-08-17T00:33:17.895Z,62
2022-08-17T00:35:50.656Z,63
2022-08-17T00:38:23.066Z,63
2022-08-17T00:41:00.339Z,64
2022-08-17T00:43:32.212Z,63
2022-08-17T00:46:05.301Z,64
2022-08-17T00:48:38.523Z,64
2022-08-17T00:51:11.114Z,64
2022-08-17T00:53:43.718Z,64
2022-08-17T00:56:16.224Z,64
2022-08-17T00:58:49.088Z,64
2022-08-17T01:01:23.095Z,64
2022-08-17T01:04:01.280Z,64
2022-08-17T01:06:33.336Z,64
2022-08-17T01:09:06.120Z,65
2022-08-17T01:11:39.589Z,65
2022-08-17T01:14:12.311Z,65
2022-08-17T01:16:44.875Z,65
2022-08-17T01:19:17.896Z,65
2022-08-17T01:21:51.098Z,65
2022-08-17T01:24:23.864Z,65
2022-08-17T01:27:01.166Z,65
2022-08-17T01:29:33.872Z,65
2022-08-17T01:32:06.395Z,66
2022-08-17T01:34:52.002Z,66
2022-08-17T01:37:23.432Z,66
2022-08-17T01:39:55.909Z,66
2022-08-17T01:42:28.139Z,66
2022-08-17T01:45:01.136Z,66
2022-08-17T01:47:37.130Z,66
2022-08-17T01:50:09.526Z,66
2022-08-17T01:52:42.594Z,66
2022-08-17T01:55:16.059Z,66
2022-08-17T01:57:49.332Z,65
2022-08-17T02:00:22.222Z,65
2022-08-17T02:02:55.105Z,65
2022-08-17T02:05:28.069Z,65
2022-08-17T02:08:05.929Z,65
2022-08-17T02:10:48.100Z,65
2022-08-17T02:13:19.572Z,65
2022-08-17T02:15:52.455Z,66
2022-08-17T02:18:25.281Z,66
2022-08-17T02:20:58.201Z,66
2022-08-17T02:23:30.827Z,66
2022-08-17T02:26:03.241Z,66
2022-08-17T02:28:36.077Z,67
2022-08-17T02:31:09.174Z,67
2022-08-17T02:34:04.374Z,66
2022-08-17T02:36:36.363Z,66
2022-08-17T02:39:08.791Z,66
2022-08-17T02:41:41.862Z,66
2022-08-17T02:44:41.106Z,66
2022-08-17T02:47:12.279Z,66
2022-08-17T02:49:57.011Z,66
2022-08-17T02:53:02.974Z,67
2022-08-17T02:55:36.940Z,67
2022-08-17T02:58:10.047Z,67
2022-08-17T03:00:43.299Z,66
2022-08-17T03:03:16.441Z,66
2022-08-17T03:05:48.599Z,66
2022-08-17T03:08:21.945Z,66
2022-08-17T03:10:54.251Z,66
2022-08-17T03:13:27.964Z,66
2022-08-17T03:16:00.617Z,66
2022-08-17T03:18:33.481Z,66
2022-08-17T03:21:05.948Z,67
2022-08-17T03:23:39.668Z,67
2022-08-17T03:26:17.289Z,67
2022-08-17T03:28:50.909Z,67
2022-08-17T03:31:23.920Z,67
2022-08-17T03:33:55.246Z,68
2022-08-17T03:36:28.302Z,68
2022-08-17T03:39:01.108Z,67
2022-08-17T03:41:34.179Z,67
2022-08-17T03:44:07.009Z,67
2022-08-17T03:46:39.886Z,67
2022-08-17T03:49:13.323Z,67
2022-08-17T03:51:45.123Z,67
2022-08-17T03:54:17.499Z,67
2022-08-17T03:56:51.219Z,67
2022-08-17T03:59:28.170Z,67
2022-08-17T04:02:00.603Z,67
2022-08-17T04:04:33.350Z,66
2022-08-17T04:07:06.367Z,66
2022-08-17T04:09:39.294Z,66
2022-08-17T04:12:12.492Z,66
2022-08-17T04:14:55.776Z,66
2022-08-17T04:17:26.750Z,66
2022-08-17T04:20:00.323Z,66
2022-08-17T04:22:56.373Z,66
2022-08-17T04:25:27.705Z,66
2022-08-17T04:28:04.198Z,66
2022-08-17T04:30:47.559Z,66
2022-08-17T04:33:20.463Z,65
2022-08-17T04:35:53.531Z,65
2022-08-17T04:38:26.918Z,65
2022-08-17T04:40:59.768Z,65
2022-08-17T04:43:32.663Z,65
2022-08-17T04:46:06.158Z,65
2022-08-17T04:48:39.365Z,64
2022-08-17T04:51:12.511Z,64
2022-08-17T04:53:44.603Z,63
2022-08-17T04:56:20.342Z,63
2022-08-17T04:58:52.564Z,63
2022-08-17T05:01:26.763Z,63
2022-08-17T05:04:35.993Z,63
2022-08-17T05:07:06.927Z,62
2022-08-17T05:09:39.585Z,62
2022-08-17T05:12:12.579Z,62
2022-08-17T05:14:45.572Z,61
2022-08-17T05:17:18.169Z,61
2022-08-17T05:19:53.486Z,61
2022-08-17T05:22:25.727Z,61
2022-08-17T05:25:03.240Z,61
2022-08-17T05:27:37.808Z,61
2022-08-17T05:30:13.998Z,60
2022-08-17T05:32:48.475Z,60
2022-08-17T05:35:25.680Z,59
2022-08-17T05:37:59.580Z,58
2022-08-17T05:40:34.466Z,58
2022-08-17T05:43:05.573Z,57
2022-08-17T05:45:57.670Z,55
2022-08-17T05:48:41.615Z,55
2022-08-17T05:51:13.620Z,54
2022-08-17T05:53:46.338Z,54
2022-08-17T05:56:32.071Z,53
2022-08-17T05:59:05.571Z,53
2022-08-17T06:01:38.858Z,52
2022-08-17T06:04:13.743Z,52
2022-08-17T06:06:46.658Z,52
2022-08-17T06:09:35.031Z,52
2022-08-17T06:12:20.640Z,52
2022-08-17T06:14:52.920Z,51
2022-08-17T06:17:25.850Z,51
2022-08-17T06:19:59.529Z,51
2022-08-17T06:22:32.513Z,51
2022-08-17T06:25:12.073Z,50
2022-08-17T06:27:44.203Z,50
2022-08-17T06:30:16.717Z,50
2022-08-17T06:32:51.408Z,50
2022-08-17T06:35:34.114Z,50
2022-08-17T06:38:06.245Z,50
2022-08-17T06:40:39.251Z,50
2022-08-17T06:43:15.427Z,50
2022-08-17T06:45:47.707Z,49
2022-08-17T06:48:21.868Z,50
2022-08-17T06:50:54.844Z,50
2022-08-17T06:53:27.124Z,50
2022-08-17T06:56:00.129Z,50
2022-08-17T06:58:34.225Z,50
2022-08-17T07:01:08.464Z,50
2022-08-17T07:03:41.065Z,50
2022-08-17T07:06:14.144Z,49
2022-08-17T07:08:47.092Z,50
2022-08-17T07:11:20.440Z,49
2022-08-17T07:13:53.374Z,49
2022-08-17T07:16:26.080Z,49
2022-08-17T07:19:00.248Z,49
2022-08-17T07:21:32.836Z,49
2022-08-17T07:24:04.959Z,49
2022-08-17T07:26:38.132Z,49
2022-08-17T07:29:11.183Z,49
2022-08-17T07:31:43.634Z,48
2022-08-17T07:34:16.379Z,48
2022-08-17T07:36:50.776Z,48
2022-08-17T07:39:21.367Z,48
2022-08-17T07:42:00.863Z,48
2022-08-17T07:44:32.586Z,48
2022-08-17T07:47:07.204Z,48
2022-08-17T07:49:38.728Z,47
2022-08-17T07:52:53.850Z,47
2022-08-17T07:55:25.174Z,47
2022-08-17T07:57:58.495Z,47
2022-08-17T08:00:34.228Z,46
2022-08-17T08:03:07.485Z,47
2022-08-17T08:05:52.565Z,47
2022-08-17T08:08:24.316Z,46
2022-08-17T08:10:57.356Z,45
2022-08-17T08:13:32.057Z,45
2022-08-17T08:16:04.378Z,45
2022-08-17T08:18:58.757Z,45
2022-08-17T08:21:29.147Z,45
2022-08-17T08:24:02.074Z,45
2022-08-17T08:26:34.889Z,45
2022-08-17T08:29:07.480Z,44
2022-08-17T08:31:44.285Z,44
2022-08-17T08:35:04.653Z,44
2022-08-17T08:37:44.123Z,44
2022-08-17T08:40:15.742Z,44
2022-08-17T08:42:48.295Z,44
2022-08-17T08:45:21.269Z,44
2022-08-17T08:47:54.953Z,44
2022-08-17T08:50:39.779Z,43
2022-08-17T08:53:10.401Z,43
2022-08-17T08:55:47.182Z,43
2022-08-17T08:58:43.440Z,43
2022-08-17T09:01:18.609Z,42
2022-08-17T09:03:54.500Z,42
2022-08-17T09:06:40.753Z,42
2022-08-17T09:09:12.361Z,42
2022-08-17T09:12:05.242Z,42
2022-08-17T09:14:48.352Z,42
2022-08-17T09:17:19.860Z,42
2022-08-17T09:19:52.481Z,42
2022-08-17T09:22:25.147Z,42
2022-08-17T09:24:58.043Z,41
2022-08-17T09:27:30.918Z,41
2022-08-17T09:30:04.160Z,41
2022-08-17T09:32:36.347Z,42
2022-08-17T09:35:10.338Z,41
2022-08-17T09:37:42.450Z,41
2022-08-17T09:40:16.249Z,41
2022-08-17T09:42:48.432Z,41
2022-08-17T09:45:21.833Z,41
2022-08-17T09:47:55.850Z,41
2022-08-17T09:51:07.645Z,40
2022-08-17T09:53:38.203Z,39
2022-08-17T09:56:11.029Z,40
2022-08-17T09:58:44.172Z,40
2022-08-17T10:01:17.134Z,39
2022-08-17T10:03:49.500Z,40
2022-08-17T10:06:23.132Z,40
2022-08-17T10:08:55.666Z,39
2022-08-17T10:11:45.827Z,39
2022-08-17T10:14:55.309Z,39
2022-08-17T10:17:27.044Z,38
2022-08-17T10:20:00.037Z,39
2022-08-17T10:22:40.209Z,38
2022-08-17T10:25:55.835Z,38
2022-08-17T10:28:31.183Z,38
2022-08-17T10:31:36.852Z,39
2022-08-17T10:34:07.042Z,39
2022-08-17T10:36:39.768Z,38
2022-08-17T10:39:12.762Z,38
2022-08-17T10:41:45.998Z,38
2022-08-17T10:44:42.158Z,38
2022-08-17T10:47:13.158Z,38
2022-08-17T10:49:46.204Z,38
2022-08-17T10:52:18.561Z,38
2022-08-17T10:54:59.478Z,38
2022-08-17T10:57:30.678Z,39
2022-08-17T11:00:03.651Z,39
2022-08-17T11:02:36.717Z,39
2022-08-17T11:05:09.024Z,37
2022-08-17T11:07:41.787Z,38
2022-08-17T11:10:14.752Z,38
2022-08-17T11:12:47.139Z,38
2022-08-17T11:15:21.523Z,38
2022-08-17T11:17:53.419Z,38
2022-08-17T11:20:26.291Z,38
2022-08-17T11:22:59.139Z,36
2022-08-17T11:25:31.830Z,37
2022-08-17T11:28:04.499Z,37
2022-08-17T11:30:37.447Z,38
2022-08-17T11:33:13.339Z,39
2022-08-17T11:35:44.940Z,38
2022-08-17T11:38:17.971Z,38
2022-08-17T11:40:50.478Z,37
2022-08-17T11:43:26.681Z,37
2022-08-17T11:46:01.105Z,37
2022-08-17T11:48:36.225Z,37
2022-08-17T11:51:08.559Z,37
2022-08-17T11:53:41.425Z,36
2022-08-17T11:56:13.370Z,36
2022-08-17T11:58:45.962Z,36
2022-08-17T12:01:18.216Z,36
2022-08-17T12:03:57.066Z,35
2022-08-17T12:06:34.691Z,35
2022-08-17T12:09:05.876Z,35
2022-08-17T12:12:16.013Z,34
2022-08-17T12:15:12.977Z,34
2022-08-17T12:17:43.759Z,34
2022-08-17T12:20:15.878Z,34
2022-08-17T12:22:48.265Z,33
2022-08-17T12:25:20.841Z,33
2022-08-17T12:28:10.239Z,33
2022-08-17T12:30:42.592Z,34
2022-08-17T12:33:29.842Z,33
2022-08-17T12:36:01.798Z,34
2022-08-17T12:38:35.826Z,34
2022-08-17T12:41:09.031Z,33
2022-08-17T12:43:41.783Z,33
2022-08-17T12:46:16.487Z,32
2022-08-17T12:49:00.893Z,32
2022-08-17T12:51:32.474Z,32
2022-08-17T12:54:05.110Z,32
2022-08-17T12:56:38.549Z,31
2022-08-17T12:59:30.706Z,30
2022-08-17T13:02:04.308Z,31
2022-08-17T13:04:36.310Z,29
2022-08-17T13:07:09.051Z,30
2022-08-17T13:09:41.875Z,31
2022-08-17T13:12:14.832Z,30
2022-08-17T13:14:46.089Z,31
2022-08-17T13:17:18.208Z,31
2022-08-17T13:19:52.013Z,30
2022-08-17T13:22:28.309Z,30
2022-08-17T13:25:01.640Z,30
2022-08-17T13:27:32.900Z,30
2022-08-17T13:30:05.401Z,30
2022-08-17T13:32:45.038Z,31
2022-08-17T13:35:43.162Z,31
2022-08-17T13:38:22.963Z,31
2022-08-17T13:40:55.061Z,31
2022-08-17T13:43:28.620Z,31
2022-08-17T13:46:02.061Z,31
2022-08-17T13:48:34.548Z,32
2022-08-17T13:51:05.457Z,31
2022-08-17T13:53:41.358Z,32
2022-08-17T13:56:40.661Z,32
2022-08-17T13:59:11.282Z,32
2022-08-17T14:01:46.618Z,33
2022-08-17T14:04:28.059Z,32
2022-08-17T14:07:01.532Z,32
2022-08-17T14:09:38.337Z,32
2022-08-17T14:12:09.682Z,32
2022-08-17T14:14:43.096Z,33
2022-08-17T14:17:15.454Z,34
2022-08-17T14:19:48.135Z,34
2022-08-17T14:22:23.067Z,33
2022-08-17T14:24:54.739Z,34
2022-08-17T14:27:28.265Z,35
2022-08-17T14:30:01.465Z,35
2022-08-17T14:32:33.958Z,36
2022-08-17T14:35:07.381Z,36
2022-08-17T14:37:40.266Z,37
2022-08-17T14:40:13.619Z,36
2022-08-17T14:42:47.114Z,36
2022-08-17T14:45:34.728Z,36
2022-08-17T14:48:06.146Z,37
2022-08-17T14:50:38.929Z,38
2022-08-17T14:53:12.021Z,37
2022-08-17T14:55:49.826Z,37
2022-08-17T14:58:21.522Z,37
2022-08-17T15:00:54.920Z,38
2022-08-17T15:03:27.517Z,38
2022-08-17T15:06:00.650Z,38
2022-08-17T15:08:32.951Z,38
2022-08-17T15:11:14.893Z,38
2022-08-17T15:13:53.995Z,39
2022-08-17T15:16:25.675Z,39
2022-08-17T15:18:57.799Z,38
2022-08-17T15:21:30.915Z,39
2022-08-17T15:24:03.595Z,39
2022-08-17T15:26:36.589Z,40
2022-08-17T15:29:09.349Z,39
2022-08-17T15:31:42.594Z,39
2022-08-17T15:34:16.041Z,39
2022-08-17T15:36:50.385Z,39
2022-08-17T15:39:22.231Z,39
2022-08-17T15:41:59.859Z,39
2022-08-17T15:44:36.161Z,39
2022-08-17T15:47:07.567Z,40
2022-08-17T15:49:41.180Z,40
2022-08-17T15:52:14.390Z,40
2022-08-17T15:54:47.664Z,40
2022-08-17T15:57:20.164Z,40
2022-08-17T16:00:00.027Z,40
2022-08-17T16:04:32.113Z,40
2022-08-17T16:07:02.592Z,41
2022-08-17T16:09:35.207Z,40
2022-08-17T16:12:08.487Z,41
2022-08-17T16:14:41.015Z,41
2022-08-17T16:17:41.617Z,42
2022-08-17T16:20:24.597Z,41
2022-08-17T16:22:56.315Z,40
2022-08-17T16:25:55.118Z,40
2022-08-17T16:28:37.481Z,40
2022-08-17T16:31:10.256Z,41
2022-08-17T16:33:42.207Z,41
2022-08-17T16:36:57.506Z,41
2022-08-17T16:39:29.509Z,41
2022-08-17T16:42:04.785Z,41
2022-08-17T16:44:36.386Z,41
2022-08-17T16:47:09.286Z,41
2022-08-17T16:49:41.603Z,40
2022-08-17T16:52:33.538Z,40
2022-08-17T16:55:04.546Z,41
2022-08-17T16:57:51.735Z,41
2022-08-17T17:00:22.912Z,40
2022-08-17T17:02:55.775Z,41
2022-08-17T17:05:28.427Z,41
2022-08-17T17:08:01.412Z,41
2022-08-17T17:13:12.767Z,41
2022-08-17T17:15:46.413Z,41
2022-08-17T17:18:19.310Z,41
2022-08-17T17:20:52.253Z,41
2022-08-17T17:23:24.758Z,41
2022-08-17T17:25:57.180Z,41
2022-08-17T17:28:30.468Z,41
2022-08-17T17:31:03.084Z,41
2022-08-17T17:33:36.897Z,41
2022-08-17T17:36:09.374Z,40
2022-08-17T17:38:42.256Z,40
2022-08-17T17:41:14.751Z,41
2022-08-17T17:43:47.800Z,40
2022-08-17T17:46:29.869Z,40
2022-08-17T17:49:01.429Z,41
2022-08-17T17:52:19.997Z,41
2022-08-17T17:54:51.185Z,42
2022-08-17T17:57:23.926Z,42
2022-08-17T17:59:56.815Z,41
2022-08-17T18:02:29.322Z,41
2022-08-17T18:05:02.131Z,41
2022-08-17T18:07:35.989Z,41
2022-08-17T18:10:33.061Z,41
2022-08-17T18:13:04.169Z,42
2022-08-17T18:15:36.947Z,41
2022-08-17T18:18:09.932Z,42
2022-08-17T18:20:57.081Z,43
2022-08-17T18:23:29.772Z,42
2022-08-17T18:26:02.237Z,43
2022-08-17T18:28:35.214Z,43
2022-08-17T18:31:07.855Z,43
2022-08-17T18:33:44.601Z,43
2022-08-17T18:36:16.252Z,44
2022-08-17T18:38:50.741Z,44
2022-08-17T18:41:23.380Z,45
2022-08-17T18:43:59.007Z,45
2022-08-17T18:46:31.504Z,44
2022-08-17T18:49:04.304Z,44
2022-08-17T18:51:44.050Z,45
2022-08-17T18:54:15.401Z,45
2022-08-17T18:56:48.352Z,45
2022-08-17T18:59:21.115Z,45
2022-08-17T19:02:26.324Z,46
2022-08-17T19:05:15.711Z,47
2022-08-17T19:07:47.955Z,48
2022-08-17T19:10:22.618Z,48
2022-08-17T19:13:13.763Z,49
2022-08-17T19:16:16.853Z,49
2022-08-17T19:18:48.034Z,50
2022-08-17T19:21:18.683Z,50
2022-08-17T19:23:55.571Z,51
2022-08-17T19:26:58.194Z,51
2022-08-17T19:29:29.623Z,51
2022-08-17T19:32:01.537Z,51
2022-08-17T19:34:35.409Z,52
2022-08-17T19:37:07.945Z,52
2022-08-17T19:39:40.788Z,53
2022-08-17T19:42:13.759Z,53
2022-08-17T19:44:48.170Z,53
2022-08-17T19:48:03.748Z,53
2022-08-17T19:50:34.997Z,53
2022-08-17T19:53:07.457Z,53
2022-08-17T19:55:49.438Z,54
2022-08-17T19:58:25.893Z,54
2022-08-17T20:00:58.712Z,54
2022-08-17T20:03:31.162Z,54
2022-08-17T20:06:15.779Z,55
2022-08-17T20:08:46.559Z,55
2022-08-17T20:11:19.159Z,55
2022-08-17T20:13:52.453Z,56
2022-08-17T20:16:24.797Z,56
2022-08-17T20:18:58.751Z,56
2022-08-17T20:21:38.475Z,56
2022-08-17T20:24:11.351Z,57
2022-08-17T20:27:00.534Z,57
2022-08-17T20:29:41.391Z,57
2022-08-17T20:32:13.573Z,57
2022-08-17T20:34:46.588Z,57
2022-08-17T20:37:19.727Z,57
2022-08-17T20:39:52.649Z,57
2022-08-17T20:42:25.026Z,57
2022-08-17T20:44:58.550Z,58
2022-08-17T20:47:31.226Z,58
2022-08-17T20:50:04.444Z,58
2022-08-17T20:52:37.288Z,58
2022-08-17T20:55:10.470Z,58
2022-08-17T20:57:42.831Z,58
2022-08-17T21:00:16.083Z,58
2022-08-17T21:02:48.911Z,58
2022-08-17T21:05:26.283Z,58
2022-08-17T21:08:08.810Z,59
2022-08-17T21:10:41.093Z,59
2022-08-17T21:13:16.202Z,59
2022-08-17T21:15:49.404Z,59
2022-08-17T21:18:25.054Z,60
2022-08-17T21:20:58.937Z,60
2022-08-17T21:23:32.230Z,60
2022-08-17T21:26:04.608Z,60
2022-08-17T21:29:40.902Z,60
2022-08-17T21:32:25.352Z,61
2022-08-17T21:34:56.733Z,61
2022-08-17T21:37:29.271Z,61
2022-08-17T21:40:02.630Z,61
2022-08-17T21:42:35.352Z,61
2022-08-17T21:45:06.749Z,62
2022-08-17T21:47:39.533Z,62
2022-08-17T21:50:12.675Z,62
2022-08-17T21:52:45.944Z,62
2022-08-17T21:55:21.642Z,62
2022-08-17T21:58:16.726Z,62
2022-08-17T22:00:49.040Z,61
2022-08-17T22:03:22.292Z,61
2022-08-17T22:05:57.380Z,61
2022-08-17T22:08:29.380Z,61
2022-08-17T22:11:03.292Z,61
2022-08-17T22:13:36.693Z,61
2022-08-17T22:16:30.265Z,61
2022-08-17T22:19:02.230Z,61
2022-08-17T22:21:36.328Z,61
2022-08-17T22:24:08.817Z,62
2022-08-17T22:26:41.691Z,62
2022-08-17T22:29:14.123Z,62
2022-08-17T22:31:47.616Z,61
2022-08-17T22:34:20.474Z,61
2022-08-17T22:36:54.538Z,61
2022-08-17T22:39:27.359Z,61
2022-08-17T22:42:00.400Z,60
2022-08-17T22:44:33.898Z,60
2022-08-17T22:47:12.412Z,60
2022-08-17T22:49:55.547Z,59
2022-08-17T22:52:33.630Z,59
2022-08-17T22:55:11.377Z,59
2022-08-17T22:57:43.027Z,60
2022-08-17T23:00:16.220Z,60
2022-08-17T23:02:56.886Z,60
2022-08-17T23:05:29.180Z,60
2022-08-17T23:08:02.428Z,60
2022-08-17T23:10:34.860Z,60
2022-08-17T23:13:08.031Z,60
2022-08-17T23:15:40.711Z,60
2022-08-17T23:18:13.054Z,60
2022-08-17T23:20:45.623Z,61
2022-08-17T23:23:25.106Z,61
2022-08-17T23:25:56.842Z,61
2022-08-17T23:28:29.983Z,61
2022-08-17T23:31:04.514Z,61
2022-08-17T23:33:36.972Z,61
2022-08-17T23:36:09.102Z,61
2022-08-17T23:38:41.568Z,62
2022-08-17T23:41:14.866Z,62
2022-08-17T23:43:47.626Z,62
2022-08-17T23:46:20.814Z,62
2022-08-17T23:48:56.022Z,62
2022-08-17T23:51:28.830Z,62
2022-08-17T23:54:09.548Z,62
2022-08-17T23:56:41.283Z,63
2022-08-17T23:59:14.754Z,63
